sensor_id;sensor_type;location;lat;lon;timestamp;P1;durP1;ratioP1;P2;durP2;ratioP2
69596;SDS011;70000;51.176;-115.568;2023-06-24T00:00:10;4.90;;;1.50;;
69596;SDS011;70000;51.176;-115.568;2023-06-24T00:02:46;6.60;;;2.10;;
69596;SDS011;70000;51.176;-115.568;2023-06-24T00:05:14;5.60;;;1.90;;
69596;SDS011;70000;51.176;-115.568;2023-06-24T00:07:44;5.70;;;2.20;;
69596;SDS011;70000;51.176;-115.568;2023-06-24T00:10:14;5.40;;;1.70;;
69596;SDS011;70000;51.176;-115.568;2023-06-24T00:12:45;6.10;;;1.80;;
69596;SDS011;70000;51.176;-115.568;2023-06-24T00:15:21;5.40;;;1.90;;
69596;SDS011;70000;51.176;-115.568;2023-06-24T00:17:50;5.60;;;1.90;;
69596;SDS011;70000;51.176;-115.568;2023-06-24T00:20:21;5.80;;;1.70;;
69596;SDS011;70000;51.176;-115.568;2023-06-24T00:22:50;5.10;;;1.80;;
69596;SDS011;70000;51.176;-115.568;2023-06-24T00:25:19;5.20;;;1.80;;
69596;SDS011;70000;51.176;-115.568;2023-06-24T00:27:50;5.30;;;1.70;;
69596;SDS011;70000;51.176;-115.568;2023-06-24T00:30:20;5.30;;;1.90;;
69596;SDS011;70000;51.176;-115.568;2023-06-24T00:32:48;5.40;;;1.90;;
69596;SDS011;70000;51.176;-115.568;2023-06-24T00:35:17;6.20;;;2.10;;
69596;SDS011;70000;51.176;-115.568;2023-06-24T00:37:49;5.60;;;2.00;;
69596;SDS011;70000;51.176;-115.568;2023-06-24T00:40:18;4.80;;;1.40;;
69596;SDS011;70000;51.176;-115.568;2023-06-24T00:42:46;10.30;;;1.60;;
69596;SDS011;70000;51.176;-115.568;2023-06-24T00:45:15;6.60;;;1.50;;
69596;SDS011;70000;51.176;-115.568;2023-06-24T00:51:01;5.40;;;1.60;;
69596;SDS011;70000;51.176;-115.568;2023-06-24T00:53:33;5.80;;;1.50;;
69596;SDS011;70000;51.176;-115.568;2023-06-24T00:56:02;5.80;;;2.00;;
69596;SDS011;70000;51.176;-115.568;2023-06-24T00:58:35;5.20;;;1.90;;
69596;SDS011;70000;51.176;-115.568;2023-06-24T01:01:10;6.20;;;2.40;;
69596;SDS011;70000;51.176;-115.568;2023-06-24T01:03:40;5.90;;;2.10;;
69596;SDS011;70000;51.176;-115.568;2023-06-24T01:06:09;6.30;;;2.30;;
69596;SDS011;70000;51.176;-115.568;2023-06-24T01:08:38;6.20;;;2.70;;
69596;SDS011;70000;51.176;-115.568;2023-06-24T01:11:08;5.80;;;2.10;;
69596;SDS011;70000;51.176;-115.568;2023-06-24T01:13:37;6.70;;;2.30;;
69596;SDS011;70000;51.176;-115.568;2023-06-24T01:16:10;6.60;;;2.50;;
69596;SDS011;70000;51.176;-115.568;2023-06-24T01:18:48;5.90;;;2.20;;
69596;SDS011;70000;51.176;-115.568;2023-06-24T01:21:41;5.80;;;2.40;;
69596;SDS011;70000;51.176;-115.568;2023-06-24T01:24:35;6.90;;;2.80;;
69596;SDS011;70000;51.176;-115.568;2023-06-24T01:27:36;5.80;;;2.20;;
69596;SDS011;70000;51.176;-115.568;2023-06-24T01:34:01;5.90;;;2.40;;
69596;SDS011;70000;51.176;-115.568;2023-06-24T01:36:33;8.70;;;2.70;;
69596;SDS011;70000;51.176;-115.568;2023-06-24T01:39:13;6.10;;;2.30;;
69596;SDS011;70000;51.176;-115.568;2023-06-24T01:42:08;6.40;;;2.60;;
69596;SDS011;70000;51.176;-115.568;2023-06-24T01:45:14;8.10;;;3.00;;
69596;SDS011;70000;51.176;-115.568;2023-06-24T01:51:33;6.70;;;3.00;;
69596;SDS011;70000;51.176;-115.568;2023-06-24T01:53:51;7.70;;;3.70;;
69596;SDS011;70000;51.176;-115.568;2023-06-24T01:56:26;6.20;;;2.90;;
69596;SDS011;70000;51.176;-115.568;2023-06-24T01:59:01;6.30;;;2.90;;
69596;SDS011;70000;51.176;-115.568;2023-06-24T02:01:35;6.40;;;2.70;;
69596;SDS011;70000;51.176;-115.568;2023-06-24T02:04:09;6.60;;;2.90;;
69596;SDS011;70000;51.176;-115.568;2023-06-24T02:06:40;6.40;;;2.70;;
69596;SDS011;70000;51.176;-115.568;2023-06-24T02:09:18;6.20;;;2.70;;
69596;SDS011;70000;51.176;-115.568;2023-06-24T02:11:50;7.00;;;3.10;;
69596;SDS011;70000;51.176;-115.568;2023-06-24T02:14:21;6.70;;;3.10;;
69596;SDS011;70000;51.176;-115.568;2023-06-24T02:16:52;7.00;;;3.10;;
69596;SDS011;70000;51.176;-115.568;2023-06-24T02:19:25;6.90;;;3.00;;
69596;SDS011;70000;51.176;-115.568;2023-06-24T02:21:58;6.50;;;3.00;;
69596;SDS011;70000;51.176;-115.568;2023-06-24T02:24:28;6.70;;;3.40;;
69596;SDS011;70000;51.176;-115.568;2023-06-24T02:26:58;7.30;;;3.30;;
69596;SDS011;70000;51.176;-115.568;2023-06-24T02:29:28;7.20;;;3.40;;
69596;SDS011;70000;51.176;-115.568;2023-06-24T02:32:01;6.90;;;3.00;;
69596;SDS011;70000;51.176;-115.568;2023-06-24T02:34:30;7.00;;;3.60;;
69596;SDS011;70000;51.176;-115.568;2023-06-24T02:37:00;7.20;;;3.60;;
69596;SDS011;70000;51.176;-115.568;2023-06-24T02:39:29;7.00;;;3.20;;
69596;SDS011;70000;51.176;-115.568;2023-06-24T02:41:59;10.30;;;3.30;;
69596;SDS011;70000;51.176;-115.568;2023-06-24T02:44:30;8.60;;;3.90;;
69596;SDS011;70000;51.176;-115.568;2023-06-24T02:47:21;6.90;;;3.30;;
69596;SDS011;70000;51.176;-115.568;2023-06-24T02:50:22;6.50;;;3.00;;
69596;SDS011;70000;51.176;-115.568;2023-06-24T02:53:07;6.40;;;3.10;;
69596;SDS011;70000;51.176;-115.568;2023-06-24T02:55:45;7.00;;;3.00;;
69596;SDS011;70000;51.176;-115.568;2023-06-24T02:58:56;7.00;;;3.00;;
69596;SDS011;70000;51.176;-115.568;2023-06-24T03:02:00;7.40;;;3.30;;
69596;SDS011;70000;51.176;-115.568;2023-06-24T03:05:08;6.80;;;3.30;;
69596;SDS011;70000;51.176;-115.568;2023-06-24T03:07:58;7.10;;;3.20;;
69596;SDS011;70000;51.176;-115.568;2023-06-24T03:10:36;7.60;;;2.90;;
69596;SDS011;70000;51.176;-115.568;2023-06-24T03:13:39;6.60;;;2.80;;
69596;SDS011;70000;51.176;-115.568;2023-06-24T03:16:20;7.00;;;3.30;;
69596;SDS011;70000;51.176;-115.568;2023-06-24T03:19:02;7.20;;;3.10;;
69596;SDS011;70000;51.176;-115.568;2023-06-24T03:21:45;8.00;;;3.30;;
69596;SDS011;70000;51.176;-115.568;2023-06-24T03:24:14;7.90;;;3.00;;
69596;SDS011;70000;51.176;-115.568;2023-06-24T03:27:17;7.00;;;3.10;;
69596;SDS011;70000;51.176;-115.568;2023-06-24T03:29:55;7.10;;;3.00;;
69596;SDS011;70000;51.176;-115.568;2023-06-24T03:32:36;6.10;;;3.00;;
69596;SDS011;70000;51.176;-115.568;2023-06-24T03:35:39;6.80;;;3.50;;
69596;SDS011;70000;51.176;-115.568;2023-06-24T03:38:23;7.90;;;3.60;;
69596;SDS011;70000;51.176;-115.568;2023-06-24T03:41:03;6.70;;;3.30;;
69596;SDS011;70000;51.176;-115.568;2023-06-24T03:43:52;6.80;;;3.40;;
69596;SDS011;70000;51.176;-115.568;2023-06-24T03:47:04;7.20;;;3.30;;
69596;SDS011;70000;51.176;-115.568;2023-06-24T03:50:24;6.80;;;3.50;;
69596;SDS011;70000;51.176;-115.568;2023-06-24T03:53:15;8.40;;;3.70;;
69596;SDS011;70000;51.176;-115.568;2023-06-24T03:56:37;8.70;;;3.80;;
69596;SDS011;70000;51.176;-115.568;2023-06-24T03:59:31;7.60;;;3.00;;
69596;SDS011;70000;51.176;-115.568;2023-06-24T04:02:06;6.30;;;2.60;;
69596;SDS011;70000;51.176;-115.568;2023-06-24T04:04:52;6.60;;;2.90;;
69596;SDS011;70000;51.176;-115.568;2023-06-24T04:08:36;6.50;;;2.90;;
69596;SDS011;70000;51.176;-115.568;2023-06-24T04:12:06;7.40;;;2.70;;
69596;SDS011;70000;51.176;-115.568;2023-06-24T04:14:55;6.90;;;3.00;;
69596;SDS011;70000;51.176;-115.568;2023-06-24T04:17:37;6.90;;;3.70;;
69596;SDS011;70000;51.176;-115.568;2023-06-24T04:20:33;6.90;;;3.10;;
69596;SDS011;70000;51.176;-115.568;2023-06-24T04:23:59;6.80;;;2.80;;
69596;SDS011;70000;51.176;-115.568;2023-06-24T04:27:01;5.90;;;2.70;;
69596;SDS011;70000;51.176;-115.568;2023-06-24T04:29:40;7.20;;;3.10;;
69596;SDS011;70000;51.176;-115.568;2023-06-24T04:32:09;6.60;;;2.80;;
69596;SDS011;70000;51.176;-115.568;2023-06-24T04:34:40;7.40;;;3.30;;
69596;SDS011;70000;51.176;-115.568;2023-06-24T04:37:09;6.70;;;2.80;;
69596;SDS011;70000;51.176;-115.568;2023-06-24T04:39:39;6.70;;;2.80;;
69596;SDS011;70000;51.176;-115.568;2023-06-24T04:42:08;7.00;;;3.10;;
69596;SDS011;70000;51.176;-115.568;2023-06-24T04:44:46;6.70;;;3.30;;
69596;SDS011;70000;51.176;-115.568;2023-06-24T04:47:30;7.00;;;2.80;;
69596;SDS011;70000;51.176;-115.568;2023-06-24T04:50:05;6.40;;;2.60;;
69596;SDS011;70000;51.176;-115.568;2023-06-24T04:52:39;6.20;;;2.60;;
69596;SDS011;70000;51.176;-115.568;2023-06-24T04:55:32;6.50;;;2.90;;
69596;SDS011;70000;51.176;-115.568;2023-06-24T04:58:27;5.90;;;2.80;;
69596;SDS011;70000;51.176;-115.568;2023-06-24T05:01:05;6.60;;;3.10;;
69596;SDS011;70000;51.176;-115.568;2023-06-24T05:03:45;6.00;;;2.60;;
69596;SDS011;70000;51.176;-115.568;2023-06-24T05:06:20;6.00;;;2.80;;
69596;SDS011;70000;51.176;-115.568;2023-06-24T05:08:58;6.90;;;3.30;;
69596;SDS011;70000;51.176;-115.568;2023-06-24T05:11:28;8.60;;;3.50;;
69596;SDS011;70000;51.176;-115.568;2023-06-24T05:14:02;7.40;;;3.30;;
69596;SDS011;70000;51.176;-115.568;2023-06-24T05:16:40;6.90;;;3.20;;
69596;SDS011;70000;51.176;-115.568;2023-06-24T05:19:26;7.00;;;2.90;;
69596;SDS011;70000;51.176;-115.568;2023-06-24T05:21:58;6.70;;;3.00;;
69596;SDS011;70000;51.176;-115.568;2023-06-24T05:24:28;6.80;;;3.10;;
69596;SDS011;70000;51.176;-115.568;2023-06-24T05:27:04;6.60;;;3.40;;
69596;SDS011;70000;51.176;-115.568;2023-06-24T05:29:39;7.10;;;3.70;;
69596;SDS011;70000;51.176;-115.568;2023-06-24T05:32:23;7.20;;;3.20;;
69596;SDS011;70000;51.176;-115.568;2023-06-24T05:34:55;6.30;;;3.00;;
69596;SDS011;70000;51.176;-115.568;2023-06-24T05:37:29;7.10;;;3.30;;
69596;SDS011;70000;51.176;-115.568;2023-06-24T05:40:01;7.00;;;2.70;;
69596;SDS011;70000;51.176;-115.568;2023-06-24T05:42:33;6.70;;;3.00;;
69596;SDS011;70000;51.176;-115.568;2023-06-24T05:45:02;6.80;;;3.00;;
69596;SDS011;70000;51.176;-115.568;2023-06-24T05:47:34;6.60;;;3.00;;
69596;SDS011;70000;51.176;-115.568;2023-06-24T05:50:07;7.50;;;2.80;;
69596;SDS011;70000;51.176;-115.568;2023-06-24T05:52:37;6.80;;;3.40;;
69596;SDS011;70000;51.176;-115.568;2023-06-24T05:55:06;6.90;;;3.00;;
69596;SDS011;70000;51.176;-115.568;2023-06-24T05:57:35;6.40;;;3.10;;
69596;SDS011;70000;51.176;-115.568;2023-06-24T06:00:05;6.70;;;3.00;;
69596;SDS011;70000;51.176;-115.568;2023-06-24T06:02:37;7.20;;;3.00;;
69596;SDS011;70000;51.176;-115.568;2023-06-24T06:05:07;6.10;;;2.90;;
69596;SDS011;70000;51.176;-115.568;2023-06-24T06:07:39;6.20;;;3.00;;
69596;SDS011;70000;51.176;-115.568;2023-06-24T06:10:08;6.60;;;3.10;;
69596;SDS011;70000;51.176;-115.568;2023-06-24T06:12:38;6.40;;;3.00;;
69596;SDS011;70000;51.176;-115.568;2023-06-24T06:15:08;7.10;;;2.80;;
69596;SDS011;70000;51.176;-115.568;2023-06-24T06:17:37;6.20;;;2.90;;
69596;SDS011;70000;51.176;-115.568;2023-06-24T06:20:11;6.60;;;3.00;;
69596;SDS011;70000;51.176;-115.568;2023-06-24T06:22:40;6.50;;;3.10;;
69596;SDS011;70000;51.176;-115.568;2023-06-24T06:25:09;6.40;;;3.10;;
69596;SDS011;70000;51.176;-115.568;2023-06-24T06:27:38;7.10;;;3.00;;
69596;SDS011;70000;51.176;-115.568;2023-06-24T06:30:08;6.60;;;2.90;;
69596;SDS011;70000;51.176;-115.568;2023-06-24T06:32:42;6.50;;;2.90;;
69596;SDS011;70000;51.176;-115.568;2023-06-24T06:35:11;7.00;;;3.20;;
69596;SDS011;70000;51.176;-115.568;2023-06-24T06:37:40;6.70;;;3.10;;
69596;SDS011;70000;51.176;-115.568;2023-06-24T06:40:12;6.30;;;3.10;;
69596;SDS011;70000;51.176;-115.568;2023-06-24T06:42:41;6.60;;;2.80;;
69596;SDS011;70000;51.176;-115.568;2023-06-24T06:45:12;6.10;;;2.50;;
69596;SDS011;70000;51.176;-115.568;2023-06-24T06:47:45;6.40;;;2.70;;
69596;SDS011;70000;51.176;-115.568;2023-06-24T06:50:14;6.10;;;2.90;;
69596;SDS011;70000;51.176;-115.568;2023-06-24T06:52:46;6.40;;;2.50;;
69596;SDS011;70000;51.176;-115.568;2023-06-24T06:55:17;6.10;;;2.80;;
69596;SDS011;70000;51.176;-115.568;2023-06-24T06:57:49;6.20;;;3.00;;
69596;SDS011;70000;51.176;-115.568;2023-06-24T07:00:25;6.50;;;2.70;;
69596;SDS011;70000;51.176;-115.568;2023-06-24T07:02:57;6.00;;;3.10;;
69596;SDS011;70000;51.176;-115.568;2023-06-24T07:05:28;6.10;;;3.10;;
69596;SDS011;70000;51.176;-115.568;2023-06-24T07:07:58;6.40;;;2.80;;
69596;SDS011;70000;51.176;-115.568;2023-06-24T07:10:27;6.30;;;2.60;;
69596;SDS011;70000;51.176;-115.568;2023-06-24T07:12:59;6.10;;;2.80;;
69596;SDS011;70000;51.176;-115.568;2023-06-24T07:15:31;6.20;;;2.70;;
69596;SDS011;70000;51.176;-115.568;2023-06-24T07:18:14;5.60;;;2.80;;
69596;SDS011;70000;51.176;-115.568;2023-06-24T07:20:46;6.20;;;3.00;;
69596;SDS011;70000;51.176;-115.568;2023-06-24T07:23:15;5.90;;;2.60;;
69596;SDS011;70000;51.176;-115.568;2023-06-24T07:25:47;6.40;;;2.60;;
69596;SDS011;70000;51.176;-115.568;2023-06-24T07:28:16;6.60;;;3.10;;
69596;SDS011;70000;51.176;-115.568;2023-06-24T07:30:48;6.90;;;3.10;;
69596;SDS011;70000;51.176;-115.568;2023-06-24T07:33:17;6.50;;;3.20;;
69596;SDS011;70000;51.176;-115.568;2023-06-24T07:35:48;6.30;;;3.00;;
69596;SDS011;70000;51.176;-115.568;2023-06-24T07:38:27;6.70;;;2.90;;
69596;SDS011;70000;51.176;-115.568;2023-06-24T07:40:57;6.30;;;2.90;;
69596;SDS011;70000;51.176;-115.568;2023-06-24T07:43:28;7.00;;;3.00;;
69596;SDS011;70000;51.176;-115.568;2023-06-24T07:45:57;6.40;;;3.10;;
69596;SDS011;70000;51.176;-115.568;2023-06-24T07:48:26;6.60;;;2.80;;
69596;SDS011;70000;51.176;-115.568;2023-06-24T07:50:55;6.10;;;2.80;;
69596;SDS011;70000;51.176;-115.568;2023-06-24T07:53:24;7.70;;;3.20;;
69596;SDS011;70000;51.176;-115.568;2023-06-24T07:55:56;6.60;;;3.10;;
69596;SDS011;70000;51.176;-115.568;2023-06-24T07:58:28;6.00;;;2.70;;
69596;SDS011;70000;51.176;-115.568;2023-06-24T08:00:59;6.60;;;2.70;;
69596;SDS011;70000;51.176;-115.568;2023-06-24T08:03:28;6.60;;;2.80;;
69596;SDS011;70000;51.176;-115.568;2023-06-24T08:05:58;6.60;;;3.00;;
69596;SDS011;70000;51.176;-115.568;2023-06-24T08:08:26;6.80;;;2.70;;
69596;SDS011;70000;51.176;-115.568;2023-06-24T08:10:55;6.00;;;2.90;;
69596;SDS011;70000;51.176;-115.568;2023-06-24T08:13:27;6.90;;;3.00;;
69596;SDS011;70000;51.176;-115.568;2023-06-24T08:16:00;6.90;;;3.10;;
69596;SDS011;70000;51.176;-115.568;2023-06-24T08:18:30;6.90;;;3.40;;
69596;SDS011;70000;51.176;-115.568;2023-06-24T08:21:08;7.00;;;2.60;;
69596;SDS011;70000;51.176;-115.568;2023-06-24T08:23:37;6.30;;;2.90;;
69596;SDS011;70000;51.176;-115.568;2023-06-24T08:26:06;7.00;;;2.70;;
69596;SDS011;70000;51.176;-115.568;2023-06-24T08:28:43;6.50;;;2.60;;
69596;SDS011;70000;51.176;-115.568;2023-06-24T08:31:14;6.10;;;2.70;;
69596;SDS011;70000;51.176;-115.568;2023-06-24T08:33:46;6.20;;;2.70;;
69596;SDS011;70000;51.176;-115.568;2023-06-24T08:36:15;6.40;;;2.50;;
69596;SDS011;70000;51.176;-115.568;2023-06-24T08:38:44;6.50;;;3.00;;
69596;SDS011;70000;51.176;-115.568;2023-06-24T08:41:13;6.50;;;2.80;;
69596;SDS011;70000;51.176;-115.568;2023-06-24T08:43:43;6.80;;;2.70;;
69596;SDS011;70000;51.176;-115.568;2023-06-24T08:46:21;6.80;;;2.90;;
69596;SDS011;70000;51.176;-115.568;2023-06-24T08:49:05;6.40;;;2.90;;
69596;SDS011;70000;51.176;-115.568;2023-06-24T08:52:12;6.60;;;3.00;;
69596;SDS011;70000;51.176;-115.568;2023-06-24T08:54:50;6.50;;;2.70;;
69596;SDS011;70000;51.176;-115.568;2023-06-24T08:57:19;6.60;;;2.90;;
69596;SDS011;70000;51.176;-115.568;2023-06-24T08:59:48;7.40;;;3.00;;
69596;SDS011;70000;51.176;-115.568;2023-06-24T09:02:19;6.60;;;3.00;;
69596;SDS011;70000;51.176;-115.568;2023-06-24T09:04:51;6.20;;;3.00;;
69596;SDS011;70000;51.176;-115.568;2023-06-24T09:07:27;6.00;;;2.60;;
69596;SDS011;70000;51.176;-115.568;2023-06-24T09:09:59;7.10;;;3.10;;
69596;SDS011;70000;51.176;-115.568;2023-06-24T09:12:46;6.50;;;3.30;;
69596;SDS011;70000;51.176;-115.568;2023-06-24T09:15:29;7.10;;;3.20;;
69596;SDS011;70000;51.176;-115.568;2023-06-24T09:18:08;8.40;;;3.10;;
69596;SDS011;70000;51.176;-115.568;2023-06-24T09:20:42;6.60;;;3.00;;
69596;SDS011;70000;51.176;-115.568;2023-06-24T09:23:16;6.10;;;3.00;;
69596;SDS011;70000;51.176;-115.568;2023-06-24T09:25:59;6.90;;;3.20;;
69596;SDS011;70000;51.176;-115.568;2023-06-24T09:28:31;6.30;;;2.80;;
69596;SDS011;70000;51.176;-115.568;2023-06-24T09:31:09;6.00;;;2.90;;
69596;SDS011;70000;51.176;-115.568;2023-06-24T09:33:41;6.60;;;3.10;;
69596;SDS011;70000;51.176;-115.568;2023-06-24T09:36:15;6.30;;;2.80;;
69596;SDS011;70000;51.176;-115.568;2023-06-24T09:38:54;7.30;;;2.80;;
69596;SDS011;70000;51.176;-115.568;2023-06-24T09:41:25;6.90;;;3.10;;
69596;SDS011;70000;51.176;-115.568;2023-06-24T09:43:58;6.10;;;2.80;;
69596;SDS011;70000;51.176;-115.568;2023-06-24T09:46:30;6.70;;;2.80;;
69596;SDS011;70000;51.176;-115.568;2023-06-24T09:49:00;6.40;;;3.00;;
69596;SDS011;70000;51.176;-115.568;2023-06-24T09:51:53;6.70;;;2.80;;
69596;SDS011;70000;51.176;-115.568;2023-06-24T09:54:50;6.30;;;2.90;;
69596;SDS011;70000;51.176;-115.568;2023-06-24T09:57:35;7.00;;;3.40;;
69596;SDS011;70000;51.176;-115.568;2023-06-24T10:00:10;7.10;;;2.90;;
69596;SDS011;70000;51.176;-115.568;2023-06-24T10:03:04;8.90;;;2.90;;
69596;SDS011;70000;51.176;-115.568;2023-06-24T10:05:57;7.00;;;2.80;;
69596;SDS011;70000;51.176;-115.568;2023-06-24T10:08:50;7.30;;;2.70;;
69596;SDS011;70000;51.176;-115.568;2023-06-24T10:12:24;6.80;;;3.20;;
69596;SDS011;70000;51.176;-115.568;2023-06-24T10:15:28;7.10;;;3.00;;
69596;SDS011;70000;51.176;-115.568;2023-06-24T10:18:35;6.80;;;3.10;;
69596;SDS011;70000;51.176;-115.568;2023-06-24T10:21:09;7.30;;;3.30;;
69596;SDS011;70000;51.176;-115.568;2023-06-24T10:23:50;6.70;;;3.20;;
69596;SDS011;70000;51.176;-115.568;2023-06-24T10:26:28;6.50;;;3.10;;
69596;SDS011;70000;51.176;-115.568;2023-06-24T10:37:00;7.60;;;3.10;;
69596;SDS011;70000;51.176;-115.568;2023-06-24T10:39:58;7.20;;;3.20;;
69596;SDS011;70000;51.176;-115.568;2023-06-24T10:45:17;7.80;;;3.20;;
69596;SDS011;70000;51.176;-115.568;2023-06-24T10:48:26;6.20;;;3.10;;
69596;SDS011;70000;51.176;-115.568;2023-06-24T10:52:02;7.40;;;3.00;;
69596;SDS011;70000;51.176;-115.568;2023-06-24T10:55:47;6.40;;;3.00;;
69596;SDS011;70000;51.176;-115.568;2023-06-24T10:59:02;7.00;;;3.70;;
69596;SDS011;70000;51.176;-115.568;2023-06-24T11:02:12;7.10;;;3.30;;
69596;SDS011;70000;51.176;-115.568;2023-06-24T11:05:23;6.80;;;3.10;;
69596;SDS011;70000;51.176;-115.568;2023-06-24T11:08:00;8.20;;;3.10;;
69596;SDS011;70000;51.176;-115.568;2023-06-24T11:10:51;6.50;;;3.10;;
69596;SDS011;70000;51.176;-115.568;2023-06-24T11:13:44;7.50;;;3.40;;
69596;SDS011;70000;51.176;-115.568;2023-06-24T11:16:52;7.10;;;3.70;;
69596;SDS011;70000;51.176;-115.568;2023-06-24T11:19:38;7.20;;;3.50;;
69596;SDS011;70000;51.176;-115.568;2023-06-24T11:22:23;7.10;;;3.50;;
69596;SDS011;70000;51.176;-115.568;2023-06-24T11:25:22;6.60;;;3.00;;
69596;SDS011;70000;51.176;-115.568;2023-06-24T11:28:14;7.00;;;3.40;;
69596;SDS011;70000;51.176;-115.568;2023-06-24T11:31:48;7.20;;;3.30;;
69596;SDS011;70000;51.176;-115.568;2023-06-24T11:35:24;7.70;;;3.90;;
69596;SDS011;70000;51.176;-115.568;2023-06-24T11:38:22;7.80;;;3.70;;
69596;SDS011;70000;51.176;-115.568;2023-06-24T11:41:15;9.00;;;4.20;;
69596;SDS011;70000;51.176;-115.568;2023-06-24T11:43:47;8.50;;;4.40;;
69596;SDS011;70000;51.176;-115.568;2023-06-24T11:46:32;8.30;;;4.20;;
69596;SDS011;70000;51.176;-115.568;2023-06-24T11:49:07;8.60;;;4.10;;
69596;SDS011;70000;51.176;-115.568;2023-06-24T11:51:47;8.20;;;4.40;;
69596;SDS011;70000;51.176;-115.568;2023-06-24T11:54:20;11.20;;;3.80;;
69596;SDS011;70000;51.176;-115.568;2023-06-24T11:56:56;9.20;;;4.10;;
69596;SDS011;70000;51.176;-115.568;2023-06-24T11:59:27;7.90;;;3.80;;
69596;SDS011;70000;51.176;-115.568;2023-06-24T12:02:01;7.80;;;4.00;;
69596;SDS011;70000;51.176;-115.568;2023-06-24T12:04:36;8.20;;;3.90;;
69596;SDS011;70000;51.176;-115.568;2023-06-24T12:07:05;7.60;;;4.00;;
69596;SDS011;70000;51.176;-115.568;2023-06-24T12:09:37;9.60;;;4.00;;
69596;SDS011;70000;51.176;-115.568;2023-06-24T12:12:14;8.20;;;3.90;;
69596;SDS011;70000;51.176;-115.568;2023-06-24T12:14:48;10.10;;;4.00;;
69596;SDS011;70000;51.176;-115.568;2023-06-24T12:17:26;9.20;;;4.30;;
69596;SDS011;70000;51.176;-115.568;2023-06-24T12:19:59;8.70;;;4.20;;
69596;SDS011;70000;51.176;-115.568;2023-06-24T12:22:29;8.80;;;3.90;;
69596;SDS011;70000;51.176;-115.568;2023-06-24T12:24:58;8.20;;;3.90;;
69596;SDS011;70000;51.176;-115.568;2023-06-24T12:27:31;7.80;;;4.20;;
69596;SDS011;70000;51.176;-115.568;2023-06-24T12:30:02;7.60;;;3.80;;
69596;SDS011;70000;51.176;-115.568;2023-06-24T12:32:32;10.10;;;4.50;;
69596;SDS011;70000;51.176;-115.568;2023-06-24T12:35:02;8.80;;;4.10;;
69596;SDS011;70000;51.176;-115.568;2023-06-24T12:37:33;8.40;;;4.10;;
69596;SDS011;70000;51.176;-115.568;2023-06-24T12:40:04;9.00;;;4.60;;
69596;SDS011;70000;51.176;-115.568;2023-06-24T12:42:38;8.50;;;4.40;;
69596;SDS011;70000;51.176;-115.568;2023-06-24T12:45:08;8.40;;;4.30;;
69596;SDS011;70000;51.176;-115.568;2023-06-24T12:47:38;8.70;;;4.00;;
69596;SDS011;70000;51.176;-115.568;2023-06-24T12:50:08;10.30;;;4.50;;
69596;SDS011;70000;51.176;-115.568;2023-06-24T12:52:38;8.60;;;4.60;;
69596;SDS011;70000;51.176;-115.568;2023-06-24T12:55:09;8.20;;;4.10;;
69596;SDS011;70000;51.176;-115.568;2023-06-24T12:57:50;9.30;;;4.40;;
69596;SDS011;70000;51.176;-115.568;2023-06-24T13:00:21;9.60;;;4.60;;
69596;SDS011;70000;51.176;-115.568;2023-06-24T13:02:53;9.60;;;4.80;;
69596;SDS011;70000;51.176;-115.568;2023-06-24T13:05:22;8.00;;;3.90;;
69596;SDS011;70000;51.176;-115.568;2023-06-24T13:07:54;8.50;;;4.30;;
69596;SDS011;70000;51.176;-115.568;2023-06-24T13:10:24;9.40;;;5.20;;
69596;SDS011;70000;51.176;-115.568;2023-06-24T13:12:54;9.10;;;5.00;;
69596;SDS011;70000;51.176;-115.568;2023-06-24T13:15:27;8.80;;;4.90;;
69596;SDS011;70000;51.176;-115.568;2023-06-24T13:17:56;12.60;;;6.10;;
69596;SDS011;70000;51.176;-115.568;2023-06-24T13:20:26;10.50;;;5.60;;
69596;SDS011;70000;51.176;-115.568;2023-06-24T13:22:55;10.00;;;5.40;;
69596;SDS011;70000;51.176;-115.568;2023-06-24T13:25:25;11.10;;;5.50;;
69596;SDS011;70000;51.176;-115.568;2023-06-24T13:28:03;10.20;;;5.30;;
69596;SDS011;70000;51.176;-115.568;2023-06-24T13:30:32;11.10;;;5.80;;
69596;SDS011;70000;51.176;-115.568;2023-06-24T13:33:04;11.80;;;5.30;;
69596;SDS011;70000;51.176;-115.568;2023-06-24T13:35:34;11.10;;;5.30;;
69596;SDS011;70000;51.176;-115.568;2023-06-24T13:38:03;10.50;;;5.20;;
69596;SDS011;70000;51.176;-115.568;2023-06-24T13:40:34;9.50;;;4.70;;
69596;SDS011;70000;51.176;-115.568;2023-06-24T13:43:04;9.50;;;4.90;;
69596;SDS011;70000;51.176;-115.568;2023-06-24T13:46:04;10.10;;;5.40;;
69596;SDS011;70000;51.176;-115.568;2023-06-24T13:48:39;10.00;;;5.40;;
69596;SDS011;70000;51.176;-115.568;2023-06-24T13:51:41;10.60;;;6.00;;
69596;SDS011;70000;51.176;-115.568;2023-06-24T13:54:11;10.80;;;5.50;;
69596;SDS011;70000;51.176;-115.568;2023-06-24T13:56:40;11.60;;;6.30;;
69596;SDS011;70000;51.176;-115.568;2023-06-24T13:59:10;11.50;;;5.60;;
69596;SDS011;70000;51.176;-115.568;2023-06-24T14:01:39;11.40;;;5.50;;
69596;SDS011;70000;51.176;-115.568;2023-06-24T14:04:09;10.20;;;5.70;;
69596;SDS011;70000;51.176;-115.568;2023-06-24T14:06:39;10.20;;;5.60;;
69596;SDS011;70000;51.176;-115.568;2023-06-24T14:09:09;11.30;;;6.20;;
69596;SDS011;70000;51.176;-115.568;2023-06-24T14:11:41;11.50;;;5.90;;
69596;SDS011;70000;51.176;-115.568;2023-06-24T14:14:11;11.00;;;6.00;;
69596;SDS011;70000;51.176;-115.568;2023-06-24T14:16:40;9.50;;;5.50;;
69596;SDS011;70000;51.176;-115.568;2023-06-24T14:19:10;11.40;;;6.00;;
69596;SDS011;70000;51.176;-115.568;2023-06-24T14:21:39;10.60;;;5.20;;
69596;SDS011;70000;51.176;-115.568;2023-06-24T14:24:09;9.80;;;5.40;;
69596;SDS011;70000;51.176;-115.568;2023-06-24T14:26:43;10.40;;;4.90;;
69596;SDS011;70000;51.176;-115.568;2023-06-24T14:29:15;11.00;;;5.70;;
69596;SDS011;70000;51.176;-115.568;2023-06-24T14:31:56;10.60;;;5.70;;
69596;SDS011;70000;51.176;-115.568;2023-06-24T14:35:05;12.00;;;6.40;;
69596;SDS011;70000;51.176;-115.568;2023-06-24T14:37:47;11.60;;;6.50;;
69596;SDS011;70000;51.176;-115.568;2023-06-24T14:40:35;12.20;;;6.40;;
69596;SDS011;70000;51.176;-115.568;2023-06-24T14:43:13;10.50;;;5.20;;
69596;SDS011;70000;51.176;-115.568;2023-06-24T14:45:42;10.10;;;4.90;;
69596;SDS011;70000;51.176;-115.568;2023-06-24T14:48:14;10.90;;;5.70;;
69596;SDS011;70000;51.176;-115.568;2023-06-24T14:50:45;10.20;;;5.20;;
69596;SDS011;70000;51.176;-115.568;2023-06-24T14:53:15;9.80;;;5.00;;
69596;SDS011;70000;51.176;-115.568;2023-06-24T14:55:44;10.20;;;5.40;;
69596;SDS011;70000;51.176;-115.568;2023-06-24T14:58:17;10.30;;;5.70;;
69596;SDS011;70000;51.176;-115.568;2023-06-24T15:00:49;11.40;;;6.10;;
69596;SDS011;70000;51.176;-115.568;2023-06-24T15:03:21;12.20;;;6.00;;
69596;SDS011;70000;51.176;-115.568;2023-06-24T15:05:50;10.90;;;6.10;;
69596;SDS011;70000;51.176;-115.568;2023-06-24T15:08:20;11.60;;;6.00;;
69596;SDS011;70000;51.176;-115.568;2023-06-24T15:10:49;12.30;;;5.90;;
69596;SDS011;70000;51.176;-115.568;2023-06-24T15:13:19;11.80;;;6.50;;
69596;SDS011;70000;51.176;-115.568;2023-06-24T15:15:48;12.10;;;6.20;;
69596;SDS011;70000;51.176;-115.568;2023-06-24T15:18:32;11.00;;;6.50;;
69596;SDS011;70000;51.176;-115.568;2023-06-24T15:21:04;11.50;;;6.20;;
69596;SDS011;70000;51.176;-115.568;2023-06-24T15:23:43;11.20;;;6.70;;
69596;SDS011;70000;51.176;-115.568;2023-06-24T15:26:18;11.00;;;6.50;;
69596;SDS011;70000;51.176;-115.568;2023-06-24T15:28:53;11.00;;;5.90;;